sensor_id;sensor_type;location;lat;lon;timestamp;P1;durP1;ratioP1;P2;durP2;ratioP2
37847;SDS011;23688;33.130;-117.188;2023-01-31T00:01:32;1.35;;;0.65;;
37847;SDS011;23688;33.130;-117.188;2023-01-31T00:06:30;0.77;;;0.63;;
37847;SDS011;23688;33.130;-117.188;2023-01-31T00:09:02;0.95;;;0.70;;
37847;SDS011;23688;33.130;-117.188;2023-01-31T00:11:29;4.25;;;1.55;;
37847;SDS011;23688;33.130;-117.188;2023-01-31T00:13:56;2.67;;;0.55;;
37847;SDS011;23688;33.130;-117.188;2023-01-31T00:16:24;1.00;;;0.83;;
37847;SDS011;23688;33.130;-117.188;2023-01-31T00:18:51;3.58;;;1.00;;
37847;SDS011;23688;33.130;-117.188;2023-01-31T00:21:19;1.73;;;0.80;;
37847;SDS011;23688;33.130;-117.188;2023-01-31T00:23:47;1.85;;;1.15;;
37847;SDS011;23688;33.130;-117.188;2023-01-31T00:26:18;3.60;;;0.88;;
37847;SDS011;23688;33.130;-117.188;2023-01-31T00:28:47;1.75;;;0.80;;
37847;SDS011;23688;33.130;-117.188;2023-01-31T00:31:15;6.22;;;2.83;;
37847;SDS011;23688;33.130;-117.188;2023-01-31T00:33:43;2.03;;;1.10;;
37847;SDS011;23688;33.130;-117.188;2023-01-31T00:36:15;2.50;;;1.63;;
37847;SDS011;23688;33.130;-117.188;2023-01-31T00:38:42;4.68;;;4.15;;
37847;SDS011;23688;33.130;-117.188;2023-01-31T00:41:10;1.60;;;1.50;;
37847;SDS011;23688;33.130;-117.188;2023-01-31T00:43:36;1.73;;;1.27;;
37847;SDS011;23688;33.130;-117.188;2023-01-31T00:46:03;1.70;;;1.15;;
37847;SDS011;23688;33.130;-117.188;2023-01-31T00:48:29;0.70;;;0.68;;
37847;SDS011;23688;33.130;-117.188;2023-01-31T00:50:58;4.22;;;0.95;;
37847;SDS011;23688;33.130;-117.188;2023-01-31T00:53:25;1.42;;;0.68;;
37847;SDS011;23688;33.130;-117.188;2023-01-31T00:55:52;1.92;;;0.70;;
37847;SDS011;23688;33.130;-117.188;2023-01-31T00:58:20;5.55;;;1.23;;
37847;SDS011;23688;33.130;-117.188;2023-01-31T01:00:47;6.32;;;1.08;;
37847;SDS011;23688;33.130;-117.188;2023-01-31T01:03:14;1.50;;;1.00;;
37847;SDS011;23688;33.130;-117.188;2023-01-31T01:05:40;1.13;;;1.02;;
37847;SDS011;23688;33.130;-117.188;2023-01-31T01:08:07;3.90;;;1.20;;
37847;SDS011;23688;33.130;-117.188;2023-01-31T01:10:33;1.27;;;0.90;;
37847;SDS011;23688;33.130;-117.188;2023-01-31T01:12:59;1.60;;;1.00;;
37847;SDS011;23688;33.130;-117.188;2023-01-31T01:15:26;3.85;;;1.40;;
37847;SDS011;23688;33.130;-117.188;2023-01-31T01:17:53;4.82;;;1.20;;
37847;SDS011;23688;33.130;-117.188;2023-01-31T01:20:20;3.67;;;1.52;;
37847;SDS011;23688;33.130;-117.188;2023-01-31T01:22:47;2.20;;;1.20;;
37847;SDS011;23688;33.130;-117.188;2023-01-31T01:25:13;1.83;;;1.40;;
37847;SDS011;23688;33.130;-117.188;2023-01-31T01:27:39;2.50;;;1.25;;
37847;SDS011;23688;33.130;-117.188;2023-01-31T01:30:06;2.75;;;1.70;;
37847;SDS011;23688;33.130;-117.188;2023-01-31T01:32:33;2.03;;;1.45;;
37847;SDS011;23688;33.130;-117.188;2023-01-31T01:34:59;2.67;;;1.08;;
37847;SDS011;23688;33.130;-117.188;2023-01-31T01:37:25;4.22;;;1.30;;
37847;SDS011;23688;33.130;-117.188;2023-01-31T01:39:51;3.05;;;1.50;;
37847;SDS011;23688;33.130;-117.188;2023-01-31T01:42:19;3.90;;;1.50;;
37847;SDS011;23688;33.130;-117.188;2023-01-31T01:44:58;3.60;;;1.30;;
37847;SDS011;23688;33.130;-117.188;2023-01-31T01:52:53;1.45;;;1.20;;
37847;SDS011;23688;33.130;-117.188;2023-01-31T01:55:30;4.43;;;1.73;;
37847;SDS011;23688;33.130;-117.188;2023-01-31T01:58:08;5.50;;;1.55;;
37847;SDS011;23688;33.130;-117.188;2023-01-31T02:00:39;7.25;;;1.70;;
37847;SDS011;23688;33.130;-117.188;2023-01-31T02:03:06;1.45;;;1.25;;
37847;SDS011;23688;33.130;-117.188;2023-01-31T02:05:41;2.17;;;1.40;;
37847;SDS011;23688;33.130;-117.188;2023-01-31T02:08:11;4.07;;;1.65;;
37847;SDS011;23688;33.130;-117.188;2023-01-31T02:13:30;3.55;;;1.73;;
37847;SDS011;23688;33.130;-117.188;2023-01-31T02:15:57;2.97;;;1.50;;
37847;SDS011;23688;33.130;-117.188;2023-01-31T02:18:23;4.68;;;1.80;;
37847;SDS011;23688;33.130;-117.188;2023-01-31T02:41:14;2.17;;;1.38;;
37847;SDS011;23688;33.130;-117.188;2023-01-31T02:43:55;3.33;;;1.63;;
37847;SDS011;23688;33.130;-117.188;2023-01-31T02:46:55;2.63;;;2.00;;
37847;SDS011;23688;33.130;-117.188;2023-01-31T02:57:33;7.75;;;3.50;;
37847;SDS011;23688;33.130;-117.188;2023-01-31T03:00:02;6.38;;;4.05;;
37847;SDS011;23688;33.130;-117.188;2023-01-31T03:02:30;10.98;;;3.40;;
37847;SDS011;23688;33.130;-117.188;2023-01-31T03:04:56;5.65;;;4.20;;
37847;SDS011;23688;33.130;-117.188;2023-01-31T03:07:23;10.52;;;3.20;;
37847;SDS011;23688;33.130;-117.188;2023-01-31T03:10:07;4.55;;;3.33;;
37847;SDS011;23688;33.130;-117.188;2023-01-31T03:13:14;5.43;;;4.78;;
37847;SDS011;23688;33.130;-117.188;2023-01-31T03:16:09;5.25;;;3.25;;
37847;SDS011;23688;33.130;-117.188;2023-01-31T03:19:04;5.68;;;4.15;;
37847;SDS011;23688;33.130;-117.188;2023-01-31T03:21:48;7.63;;;4.57;;
37847;SDS011;23688;33.130;-117.188;2023-01-31T03:24:25;7.43;;;4.68;;
37847;SDS011;23688;33.130;-117.188;2023-01-31T03:26:54;10.13;;;6.40;;
37847;SDS011;23688;33.130;-117.188;2023-01-31T03:29:27;7.53;;;6.60;;
37847;SDS011;23688;33.130;-117.188;2023-01-31T03:34:49;7.55;;;3.97;;
37847;SDS011;23688;33.130;-117.188;2023-01-31T03:39:54;1.60;;;1.40;;
37847;SDS011;23688;33.130;-117.188;2023-01-31T03:48:01;6.88;;;3.97;;
37847;SDS011;23688;33.130;-117.188;2023-01-31T03:50:42;6.22;;;3.70;;
37847;SDS011;23688;33.130;-117.188;2023-01-31T03:55:52;2.60;;;1.60;;
37847;SDS011;23688;33.130;-117.188;2023-01-31T03:58:25;2.97;;;2.38;;
37847;SDS011;23688;33.130;-117.188;2023-01-31T04:00:55;4.18;;;3.17;;
37847;SDS011;23688;33.130;-117.188;2023-01-31T04:03:27;3.80;;;2.42;;
37847;SDS011;23688;33.130;-117.188;2023-01-31T04:06:04;8.00;;;4.20;;
37847;SDS011;23688;33.130;-117.188;2023-01-31T04:08:31;5.32;;;2.72;;
37847;SDS011;23688;33.130;-117.188;2023-01-31T04:10:58;4.55;;;2.22;;
37847;SDS011;23688;33.130;-117.188;2023-01-31T04:13:28;3.20;;;1.90;;
37847;SDS011;23688;33.130;-117.188;2023-01-31T04:15:55;5.35;;;2.20;;
37847;SDS011;23688;33.130;-117.188;2023-01-31T04:18:24;2.70;;;2.05;;
37847;SDS011;23688;33.130;-117.188;2023-01-31T04:20:50;4.57;;;0.98;;
37847;SDS011;23688;33.130;-117.188;2023-01-31T04:23:17;1.25;;;0.70;;
37847;SDS011;23688;33.130;-117.188;2023-01-31T04:25:43;0.60;;;0.60;;
37847;SDS011;23688;33.130;-117.188;2023-01-31T04:28:10;0.57;;;0.57;;
37847;SDS011;23688;33.130;-117.188;2023-01-31T04:30:36;0.50;;;0.50;;
37847;SDS011;23688;33.130;-117.188;2023-01-31T04:33:02;1.13;;;1.02;;
37847;SDS011;23688;33.130;-117.188;2023-01-31T04:35:29;3.67;;;1.98;;
37847;SDS011;23688;33.130;-117.188;2023-01-31T04:37:55;3.15;;;2.08;;
37847;SDS011;23688;33.130;-117.188;2023-01-31T04:40:21;3.10;;;1.65;;
37847;SDS011;23688;33.130;-117.188;2023-01-31T04:42:49;3.65;;;1.67;;
37847;SDS011;23688;33.130;-117.188;2023-01-31T04:45:16;5.57;;;1.60;;
37847;SDS011;23688;33.130;-117.188;2023-01-31T04:47:42;0.75;;;0.75;;
37847;SDS011;23688;33.130;-117.188;2023-01-31T04:50:09;3.30;;;0.90;;
37847;SDS011;23688;33.130;-117.188;2023-01-31T04:52:35;4.75;;;1.13;;
37847;SDS011;23688;33.130;-117.188;2023-01-31T04:55:02;1.20;;;1.00;;
37847;SDS011;23688;33.130;-117.188;2023-01-31T04:57:28;1.10;;;1.00;;
37847;SDS011;23688;33.130;-117.188;2023-01-31T04:59:54;2.78;;;1.50;;
37847;SDS011;23688;33.130;-117.188;2023-01-31T05:02:21;5.65;;;2.40;;
37847;SDS011;23688;33.130;-117.188;2023-01-31T05:04:47;4.90;;;2.95;;
37847;SDS011;23688;33.130;-117.188;2023-01-31T05:07:13;5.75;;;4.15;;
37847;SDS011;23688;33.130;-117.188;2023-01-31T05:09:40;4.88;;;4.00;;
37847;SDS011;23688;33.130;-117.188;2023-01-31T05:12:08;7.27;;;4.17;;
37847;SDS011;23688;33.130;-117.188;2023-01-31T05:14:34;9.13;;;4.88;;
37847;SDS011;23688;33.130;-117.188;2023-01-31T05:17:01;8.90;;;4.38;;
37847;SDS011;23688;33.130;-117.188;2023-01-31T05:19:27;5.93;;;4.10;;
37847;SDS011;23688;33.130;-117.188;2023-01-31T05:21:53;6.85;;;4.60;;
37847;SDS011;23688;33.130;-117.188;2023-01-31T05:24:23;6.05;;;4.25;;
37847;SDS011;23688;33.130;-117.188;2023-01-31T05:26:54;9.65;;;4.50;;
37847;SDS011;23688;33.130;-117.188;2023-01-31T05:29:25;5.88;;;4.28;;
37847;SDS011;23688;33.130;-117.188;2023-01-31T05:31:52;5.78;;;3.92;;
37847;SDS011;23688;33.130;-117.188;2023-01-31T05:34:20;6.30;;;4.65;;
37847;SDS011;23688;33.130;-117.188;2023-01-31T05:36:48;6.38;;;4.25;;
37847;SDS011;23688;33.130;-117.188;2023-01-31T05:39:14;7.43;;;3.83;;
37847;SDS011;23688;33.130;-117.188;2023-01-31T05:41:41;6.50;;;4.13;;
37847;SDS011;23688;33.130;-117.188;2023-01-31T05:44:07;6.68;;;4.03;;
37847;SDS011;23688;33.130;-117.188;2023-01-31T05:46:35;9.30;;;7.60;;
37847;SDS011;23688;33.130;-117.188;2023-01-31T05:49:02;11.05;;;5.82;;
37847;SDS011;23688;33.130;-117.188;2023-01-31T05:51:29;8.38;;;6.18;;
37847;SDS011;23688;33.130;-117.188;2023-01-31T05:53:55;8.15;;;5.30;;
37847;SDS011;23688;33.130;-117.188;2023-01-31T05:56:22;9.50;;;4.75;;
37847;SDS011;23688;33.130;-117.188;2023-01-31T05:58:49;7.25;;;4.80;;
37847;SDS011;23688;33.130;-117.188;2023-01-31T06:01:19;8.80;;;5.78;;
37847;SDS011;23688;33.130;-117.188;2023-01-31T06:03:47;9.93;;;7.15;;
37847;SDS011;23688;33.130;-117.188;2023-01-31T06:06:14;6.60;;;5.00;;
37847;SDS011;23688;33.130;-117.188;2023-01-31T06:08:40;9.40;;;5.22;;
37847;SDS011;23688;33.130;-117.188;2023-01-31T06:11:07;4.63;;;3.67;;
37847;SDS011;23688;33.130;-117.188;2023-01-31T06:13:38;12.63;;;5.88;;
37847;SDS011;23688;33.130;-117.188;2023-01-31T06:16:07;7.28;;;3.60;;
37847;SDS011;23688;33.130;-117.188;2023-01-31T06:18:35;5.75;;;2.90;;
37847;SDS011;23688;33.130;-117.188;2023-01-31T06:21:02;4.53;;;3.50;;
37847;SDS011;23688;33.130;-117.188;2023-01-31T06:23:28;9.10;;;4.03;;
37847;SDS011;23688;33.130;-117.188;2023-01-31T06:25:54;7.20;;;3.25;;
37847;SDS011;23688;33.130;-117.188;2023-01-31T06:28:22;4.05;;;2.67;;
37847;SDS011;23688;33.130;-117.188;2023-01-31T06:30:49;4.40;;;2.95;;
37847;SDS011;23688;33.130;-117.188;2023-01-31T06:33:16;2.95;;;2.60;;
37847;SDS011;23688;33.130;-117.188;2023-01-31T06:35:42;5.30;;;3.10;;
37847;SDS011;23688;33.130;-117.188;2023-01-31T06:38:10;4.43;;;2.72;;
37847;SDS011;23688;33.130;-117.188;2023-01-31T06:40:40;4.00;;;2.20;;
37847;SDS011;23688;33.130;-117.188;2023-01-31T06:43:08;2.40;;;1.88;;
37847;SDS011;23688;33.130;-117.188;2023-01-31T06:45:36;3.90;;;1.80;;
37847;SDS011;23688;33.130;-117.188;2023-01-31T06:48:02;6.10;;;2.33;;
37847;SDS011;23688;33.130;-117.188;2023-01-31T06:50:29;4.82;;;2.10;;
37847;SDS011;23688;33.130;-117.188;2023-01-31T06:52:55;3.42;;;2.35;;
37847;SDS011;23688;33.130;-117.188;2023-01-31T06:55:23;4.07;;;2.22;;
37847;SDS011;23688;33.130;-117.188;2023-01-31T06:57:50;4.10;;;1.90;;
37847;SDS011;23688;33.130;-117.188;2023-01-31T07:00:16;2.13;;;1.85;;
37847;SDS011;23688;33.130;-117.188;2023-01-31T07:02:44;4.28;;;2.20;;
37847;SDS011;23688;33.130;-117.188;2023-01-31T07:05:11;3.67;;;2.20;;
37847;SDS011;23688;33.130;-117.188;2023-01-31T07:07:37;3.83;;;2.70;;
37847;SDS011;23688;33.130;-117.188;2023-01-31T07:10:04;3.03;;;2.13;;
37847;SDS011;23688;33.130;-117.188;2023-01-31T07:12:31;6.00;;;3.13;;
37847;SDS011;23688;33.130;-117.188;2023-01-31T07:14:57;7.03;;;3.55;;
37847;SDS011;23688;33.130;-117.188;2023-01-31T07:17:24;8.98;;;3.78;;
37847;SDS011;23688;33.130;-117.188;2023-01-31T07:19:50;5.07;;;2.30;;
37847;SDS011;23688;33.130;-117.188;2023-01-31T07:22:16;4.53;;;2.78;;
37847;SDS011;23688;33.130;-117.188;2023-01-31T07:24:42;4.45;;;2.88;;
37847;SDS011;23688;33.130;-117.188;2023-01-31T07:27:11;6.20;;;2.80;;
37847;SDS011;23688;33.130;-117.188;2023-01-31T07:29:38;4.40;;;2.33;;
37847;SDS011;23688;33.130;-117.188;2023-01-31T07:32:04;3.72;;;2.63;;
37847;SDS011;23688;33.130;-117.188;2023-01-31T07:34:31;5.88;;;2.03;;
37847;SDS011;23688;33.130;-117.188;2023-01-31T07:36:57;3.83;;;2.10;;
37847;SDS011;23688;33.130;-117.188;2023-01-31T07:39:25;1.77;;;1.35;;
37847;SDS011;23688;33.130;-117.188;2023-01-31T07:41:52;4.28;;;1.45;;
37847;SDS011;23688;33.130;-117.188;2023-01-31T07:44:18;1.15;;;0.93;;
37847;SDS011;23688;33.130;-117.188;2023-01-31T07:46:45;1.38;;;0.80;;
37847;SDS011;23688;33.130;-117.188;2023-01-31T07:49:11;1.25;;;1.10;;
37847;SDS011;23688;33.130;-117.188;2023-01-31T07:51:38;0.80;;;0.65;;
37847;SDS011;23688;33.130;-117.188;2023-01-31T07:54:05;1.90;;;0.85;;
37847;SDS011;23688;33.130;-117.188;2023-01-31T07:56:33;2.33;;;0.90;;
37847;SDS011;23688;33.130;-117.188;2023-01-31T07:59:00;0.80;;;0.80;;
37847;SDS011;23688;33.130;-117.188;2023-01-31T08:01:26;1.40;;;1.20;;
37847;SDS011;23688;33.130;-117.188;2023-01-31T08:04:12;4.03;;;1.85;;
37847;SDS011;23688;33.130;-117.188;2023-01-31T08:06:40;2.75;;;2.00;;
37847;SDS011;23688;33.130;-117.188;2023-01-31T08:09:08;3.10;;;1.92;;
37847;SDS011;23688;33.130;-117.188;2023-01-31T08:11:35;3.05;;;2.35;;
37847;SDS011;23688;33.130;-117.188;2023-01-31T08:14:04;2.35;;;2.08;;
37847;SDS011;23688;33.130;-117.188;2023-01-31T08:16:33;3.47;;;2.10;;
37847;SDS011;23688;33.130;-117.188;2023-01-31T08:19:00;9.90;;;2.78;;
37847;SDS011;23688;33.130;-117.188;2023-01-31T08:21:27;4.57;;;2.33;;
37847;SDS011;23688;33.130;-117.188;2023-01-31T08:23:53;6.40;;;2.88;;
37847;SDS011;23688;33.130;-117.188;2023-01-31T08:26:20;1.70;;;1.55;;
37847;SDS011;23688;33.130;-117.188;2023-01-31T08:28:47;4.65;;;3.00;;
37847;SDS011;23688;33.130;-117.188;2023-01-31T08:31:19;3.90;;;3.03;;
37847;SDS011;23688;33.130;-117.188;2023-01-31T08:33:48;3.63;;;2.35;;
37847;SDS011;23688;33.130;-117.188;2023-01-31T08:36:21;5.00;;;2.50;;
37847;SDS011;23688;33.130;-117.188;2023-01-31T08:38:49;2.55;;;1.65;;
37847;SDS011;23688;33.130;-117.188;2023-01-31T08:41:17;5.03;;;1.70;;
37847;SDS011;23688;33.130;-117.188;2023-01-31T08:43:45;1.80;;;1.23;;
37847;SDS011;23688;33.130;-117.188;2023-01-31T08:46:13;1.23;;;1.13;;
37847;SDS011;23688;33.130;-117.188;2023-01-31T08:48:40;5.20;;;1.10;;
37847;SDS011;23688;33.130;-117.188;2023-01-31T08:51:09;2.40;;;1.10;;
37847;SDS011;23688;33.130;-117.188;2023-01-31T08:53:37;2.60;;;1.73;;
37847;SDS011;23688;33.130;-117.188;2023-01-31T08:56:05;1.63;;;1.00;;
37847;SDS011;23688;33.130;-117.188;2023-01-31T08:58:36;3.90;;;1.73;;
37847;SDS011;23688;33.130;-117.188;2023-01-31T09:01:12;1.65;;;1.40;;
37847;SDS011;23688;33.130;-117.188;2023-01-31T09:03:40;3.55;;;2.30;;
37847;SDS011;23688;33.130;-117.188;2023-01-31T09:06:09;2.30;;;1.40;;
37847;SDS011;23688;33.130;-117.188;2023-01-31T09:08:37;5.07;;;2.00;;
37847;SDS011;23688;33.130;-117.188;2023-01-31T09:11:04;2.28;;;1.45;;
37847;SDS011;23688;33.130;-117.188;2023-01-31T09:13:30;2.42;;;1.70;;
37847;SDS011;23688;33.130;-117.188;2023-01-31T09:15:59;1.85;;;1.48;;
37847;SDS011;23688;33.130;-117.188;2023-01-31T09:18:32;5.25;;;1.00;;
37847;SDS011;23688;33.130;-117.188;2023-01-31T09:21:06;3.00;;;1.55;;
37847;SDS011;23688;33.130;-117.188;2023-01-31T09:23:37;7.38;;;2.70;;
37847;SDS011;23688;33.130;-117.188;2023-01-31T09:26:06;8.27;;;2.50;;
37847;SDS011;23688;33.130;-117.188;2023-01-31T09:28:33;5.15;;;2.35;;
37847;SDS011;23688;33.130;-117.188;2023-01-31T09:31:06;5.38;;;1.73;;
37847;SDS011;23688;33.130;-117.188;2023-01-31T09:33:38;3.00;;;2.05;;
37847;SDS011;23688;33.130;-117.188;2023-01-31T09:36:14;1.90;;;1.30;;
37847;SDS011;23688;33.130;-117.188;2023-01-31T09:38:42;1.83;;;1.15;;
37847;SDS011;23688;33.130;-117.188;2023-01-31T09:41:22;2.58;;;1.38;;
37847;SDS011;23688;33.130;-117.188;2023-01-31T09:43:58;5.82;;;3.03;;
37847;SDS011;23688;33.130;-117.188;2023-01-31T09:46:45;3.03;;;1.92;;
37847;SDS011;23688;33.130;-117.188;2023-01-31T09:49:25;5.45;;;2.15;;
37847;SDS011;23688;33.130;-117.188;2023-01-31T09:51:59;6.20;;;1.85;;
37847;SDS011;23688;33.130;-117.188;2023-01-31T09:54:35;4.95;;;1.40;;
37847;SDS011;23688;33.130;-117.188;2023-01-31T09:57:07;4.97;;;1.50;;
37847;SDS011;23688;33.130;-117.188;2023-01-31T09:59:41;4.85;;;1.88;;
37847;SDS011;23688;33.130;-117.188;2023-01-31T10:02:14;4.03;;;1.67;;
37847;SDS011;23688;33.130;-117.188;2023-01-31T10:07:42;3.20;;;1.67;;
37847;SDS011;23688;33.130;-117.188;2023-01-31T10:12:46;4.70;;;1.80;;
37847;SDS011;23688;33.130;-117.188;2023-01-31T10:15:22;4.63;;;1.90;;
37847;SDS011;23688;33.130;-117.188;2023-01-31T10:17:58;4.35;;;2.13;;
37847;SDS011;23688;33.130;-117.188;2023-01-31T10:20:41;3.95;;;2.00;;
37847;SDS011;23688;33.130;-117.188;2023-01-31T10:26:03;2.25;;;1.98;;
37847;SDS011;23688;33.130;-117.188;2023-01-31T10:31:43;2.53;;;2.05;;
37847;SDS011;23688;33.130;-117.188;2023-01-31T10:40:14;5.53;;;2.00;;
37847;SDS011;23688;33.130;-117.188;2023-01-31T10:43:07;3.10;;;2.13;;
37847;SDS011;23688;33.130;-117.188;2023-01-31T10:45:36;8.80;;;2.25;;
37847;SDS011;23688;33.130;-117.188;2023-01-31T10:58:30;5.90;;;2.90;;
37847;SDS011;23688;33.130;-117.188;2023-01-31T11:00:57;4.78;;;2.03;;
37847;SDS011;23688;33.130;-117.188;2023-01-31T11:03:23;3.35;;;1.40;;
37847;SDS011;23688;33.130;-117.188;2023-01-31T11:05:51;5.22;;;1.65;;
37847;SDS011;23688;33.130;-117.188;2023-01-31T11:08:24;2.38;;;1.45;;
37847;SDS011;23688;33.130;-117.188;2023-01-31T11:10:54;7.25;;;4.00;;
37847;SDS011;23688;33.130;-117.188;2023-01-31T11:13:22;5.25;;;3.97;;
37847;SDS011;23688;33.130;-117.188;2023-01-31T11:15:49;6.68;;;4.43;;
37847;SDS011;23688;33.130;-117.188;2023-01-31T11:18:26;8.30;;;5.03;;
37847;SDS011;23688;33.130;-117.188;2023-01-31T11:21:17;9.30;;;4.38;;
37847;SDS011;23688;33.130;-117.188;2023-01-31T11:23:52;5.95;;;4.28;;
37847;SDS011;23688;33.130;-117.188;2023-01-31T11:26:38;6.70;;;4.45;;
37847;SDS011;23688;33.130;-117.188;2023-01-31T11:29:16;8.43;;;3.80;;
37847;SDS011;23688;33.130;-117.188;2023-01-31T11:31:45;6.57;;;3.30;;
37847;SDS011;23688;33.130;-117.188;2023-01-31T11:34:18;4.93;;;3.10;;
37847;SDS011;23688;33.130;-117.188;2023-01-31T11:36:46;5.25;;;3.10;;
37847;SDS011;23688;33.130;-117.188;2023-01-31T11:39:26;7.10;;;4.28;;
37847;SDS011;23688;33.130;-117.188;2023-01-31T11:41:56;5.43;;;3.80;;
37847;SDS011;23688;33.130;-117.188;2023-01-31T11:44:29;6.88;;;3.97;;
37847;SDS011;23688;33.130;-117.188;2023-01-31T11:46:56;10.40;;;4.30;;
37847;SDS011;23688;33.130;-117.188;2023-01-31T11:49:32;7.30;;;4.60;;
37847;SDS011;23688;33.130;-117.188;2023-01-31T11:52:10;5.78;;;3.95;;
37847;SDS011;23688;33.130;-117.188;2023-01-31T11:54:39;5.40;;;4.03;;
37847;SDS011;23688;33.130;-117.188;2023-01-31T11:57:15;5.18;;;3.72;;
37847;SDS011;23688;33.130;-117.188;2023-01-31T12:02:23;8.23;;;3.33;;
37847;SDS011;23688;33.130;-117.188;2023-01-31T12:04:53;6.65;;;3.50;;
37847;SDS011;23688;33.130;-117.188;2023-01-31T12:07:22;10.48;;;3.28;;
37847;SDS011;23688;33.130;-117.188;2023-01-31T12:09:50;5.82;;;3.50;;
37847;SDS011;23688;33.130;-117.188;2023-01-31T12:12:22;5.40;;;3.80;;
37847;SDS011;23688;33.130;-117.188;2023-01-31T12:14:55;5.40;;;3.47;;
37847;SDS011;23688;33.130;-117.188;2023-01-31T12:17:27;6.97;;;3.60;;
37847;SDS011;23688;33.130;-117.188;2023-01-31T12:22:42;5.60;;;3.15;;
37847;SDS011;23688;33.130;-117.188;2023-01-31T12:27:48;6.07;;;3.30;;
37847;SDS011;23688;33.130;-117.188;2023-01-31T12:39:30;7.72;;;3.33;;
37847;SDS011;23688;33.130;-117.188;2023-01-31T12:42:20;5.88;;;2.70;;
37847;SDS011;23688;33.130;-117.188;2023-01-31T12:47:45;5.82;;;3.00;;
37847;SDS011;23688;33.130;-117.188;2023-01-31T12:50:29;5.50;;;3.25;;
37847;SDS011;23688;33.130;-117.188;2023-01-31T12:53:09;4.93;;;2.83;;
37847;SDS011;23688;33.130;-117.188;2023-01-31T12:58:40;4.60;;;3.05;;
37847;SDS011;23688;33.130;-117.188;2023-01-31T13:01:17;4.38;;;3.30;;
37847;SDS011;23688;33.130;-117.188;2023-01-31T13:07:03;5.55;;;3.13;;
37847;SDS011;23688;33.130;-117.188;2023-01-31T13:09:34;5.22;;;3.33;;
37847;SDS011;23688;33.130;-117.188;2023-01-31T13:14:45;5.70;;;3.17;;
37847;SDS011;23688;33.130;-117.188;2023-01-31T13:17:24;4.30;;;3.20;;
37847;SDS011;23688;33.130;-117.188;2023-01-31T13:19:57;7.05;;;3.40;;
37847;SDS011;23688;33.130;-117.188;2023-01-31T13:22:44;9.55;;;2.78;;
37847;SDS011;23688;33.130;-117.188;2023-01-31T13:27:43;4.45;;;2.72;;
37847;SDS011;23688;33.130;-117.188;2023-01-31T13:30:30;6.97;;;2.40;;
37847;SDS011;23688;33.130;-117.188;2023-01-31T13:34:03;5.55;;;2.88;;
37847;SDS011;23688;33.130;-117.188;2023-01-31T13:36:15;4.95;;;2.95;;
37847;SDS011;23688;33.130;-117.188;2023-01-31T13:38:52;4.85;;;3.38;;
37847;SDS011;23688;33.130;-117.188;2023-01-31T13:41:29;5.40;;;3.35;;
37847;SDS011;23688;33.130;-117.188;2023-01-31T13:43:57;5.18;;;3.17;;
37847;SDS011;23688;33.130;-117.188;2023-01-31T13:46:30;6.05;;;3.70;;
37847;SDS011;23688;33.130;-117.188;2023-01-31T13:52:09;5.78;;;3.63;;
37847;SDS011;23688;33.130;-117.188;2023-01-31T13:54:49;6.32;;;3.22;;
37847;SDS011;23688;33.130;-117.188;2023-01-31T13:57:23;8.45;;;3.42;;
37847;SDS011;23688;33.130;-117.188;2023-01-31T13:59:57;7.53;;;3.75;;
37847;SDS011;23688;33.130;-117.188;2023-01-31T14:08:30;4.93;;;2.70;;
37847;SDS011;23688;33.130;-117.188;2023-01-31T14:11:48;6.30;;;3.38;;
37847;SDS011;23688;33.130;-117.188;2023-01-31T14:19:09;7.30;;;2.85;;
37847;SDS011;23688;33.130;-117.188;2023-01-31T14:21:51;6.90;;;3.63;;
37847;SDS011;23688;33.130;-117.188;2023-01-31T14:27:17;5.88;;;3.45;;
37847;SDS011;23688;33.130;-117.188;2023-01-31T14:29:55;6.07;;;3.20;;
37847;SDS011;23688;33.130;-117.188;2023-01-31T14:32:34;5.65;;;3.45;;
37847;SDS011;23688;33.130;-117.188;2023-01-31T14:35:06;5.05;;;2.70;;
37847;SDS011;23688;33.130;-117.188;2023-01-31T14:37:51;6.45;;;2.40;;
37847;SDS011;23688;33.130;-117.188;2023-01-31T14:49:20;3.17;;;2.05;;
37847;SDS011;23688;33.130;-117.188;2023-01-31T15:02:21;2.75;;;1.58;;
37847;SDS011;23688;33.130;-117.188;2023-01-31T15:05:00;3.20;;;1.60;;
37847;SDS011;23688;33.130;-117.188;2023-01-31T15:07:29;3.03;;;2.17;;
37847;SDS011;23688;33.130;-117.188;2023-01-31T15:09:55;2.28;;;1.20;;
37847;SDS011;23688;33.130;-117.188;2023-01-31T15:15:36;3.10;;;1.02;;
37847;SDS011;23688;33.130;-117.188;2023-01-31T15:18:18;1.52;;;1.02;;
37847;SDS011;23688;33.130;-117.188;2023-01-31T15:21:00;3.92;;;1.00;;
37847;SDS011;23688;33.130;-117.188;2023-01-31T15:23:30;4.30;;;1.08;;
37847;SDS011;23688;33.130;-117.188;2023-01-31T15:26:00;3.05;;;0.80;;
37847;SDS011;23688;33.130;-117.188;2023-01-31T15:28:29;8.05;;;4.10;;
37847;SDS011;23688;33.130;-117.188;2023-01-31T15:31:06;4.32;;;1.15;;
37847;SDS011;23688;33.130;-117.188;2023-01-31T15:33:47;2.97;;;1.00;;
37847;SDS011;23688;33.130;-117.188;2023-01-31T15:36:18;4.03;;;1.17;;
37847;SDS011;23688;33.130;-117.188;2023-01-31T15:39:17;3.97;;;1.33;;
37847;SDS011;23688;33.130;-117.188;2023-01-31T15:41:44;4.05;;;1.20;;
37847;SDS011;23688;33.130;-117.188;2023-01-31T15:44:21;3.33;;;1.20;;
37847;SDS011;23688;33.130;-117.188;2023-01-31T15:46:49;5.83;;;1.40;;
37847;SDS011;23688;33.130;-117.188;2023-01-31T15:49:25;2.95;;;0.60;;
37847;SDS011;23688;33.130;-117.188;2023-01-31T15:55:40;7.53;;;1.30;;
37847;SDS011;23688;33.130;-117.188;2023-01-31T15:57:55;3.10;;;1.20;;
37847;SDS011;23688;33.130;-117.188;2023-01-31T16:00:47;2.22;;;1.10;;
37847;SDS011;23688;33.130;-117.188;2023-01-31T16:03:21;4.82;;;1.10;;
37847;SDS011;23688;33.130;-117.188;2023-01-31T16:05:54;8.43;;;1.27;;
37847;SDS011;23688;33.130;-117.188;2023-01-31T16:08:36;1.83;;;1.20;;
37847;SDS011;23688;33.130;-117.188;2023-01-31T16:11:07;3.92;;;0.90;;
37847;SDS011;23688;33.130;-117.188;2023-01-31T16:13:35;4.35;;;1.23;;
37847;SDS011;23688;33.130;-117.188;2023-01-31T16:18:32;3.00;;;0.80;;
37847;SDS011;23688;33.130;-117.188;2023-01-31T16:21:11;3.22;;;0.70;;
37847;SDS011;23688;33.130;-117.188;2023-01-31T16:23:41;4.35;;;0.90;;
37847;SDS011;23688;33.130;-117.188;2023-01-31T16:26:09;3.00;;;1.17;;
37847;SDS011;23688;33.130;-117.188;2023-01-31T16:28:52;11.25;;;1.20;;
37847;SDS011;23688;33.130;-117.188;2023-01-31T16:31:22;2.13;;;0.75;;
37847;SDS011;23688;33.130;-117.188;2023-01-31T16:33:57;2.67;;;1.40;;
37847;SDS011;23688;33.130;-117.188;2023-01-31T16:36:32;11.60;;;1.42;;
37847;SDS011;23688;33.130;-117.188;2023-01-31T16:42:06;9.02;;;1.20;;
37847;SDS011;23688;33.130;-117.188;2023-01-31T16:44:48;6.82;;;1.08;;
37847;SDS011;23688;33.130;-117.188;2023-01-31T16:50:21;4.90;;;0.90;;
37847;SDS011;23688;33.130;-117.188;2023-01-31T16:53:06;10.45;;;1.05;;
37847;SDS011;23688;33.130;-117.188;2023-01-31T16:55:40;3.65;;;1.00;;
37847;SDS011;23688;33.130;-117.188;2023-01-31T16:58:10;5.82;;;0.73;;
37847;SDS011;23688;33.130;-117.188;2023-01-31T17:00:37;6.20;;;1.27;;
37847;SDS011;23688;33.130;-117.188;2023-01-31T17:03:11;7.22;;;0.77;;
37847;SDS011;23688;33.130;-117.188;2023-01-31T17:05:43;8.82;;;1.30;;
37847;SDS011;23688;33.130;-117.188;2023-01-31T17:08:13;6.78;;;0.77;;
37847;SDS011;23688;33.130;-117.188;2023-01-31T17:10:42;2.50;;;0.82;;
37847;SDS011;23688;33.130;-117.188;2023-01-31T17:13:14;1.35;;;0.88;;
37847;SDS011;23688;33.130;-117.188;2023-01-31T17:15:45;3.33;;;1.00;;